Time;durP1;ratioP1;P1;durP2;ratioP2;P2;SDS_P1;SDS_P2;PMS_P1;PMS_P2;Temp;Humidity;BMP_temperature;BMP_pressure;BME280_temperature;BME280_humidity;BME280_pressure;Samples;Min_cycle;Max_cycle;Signal;HPM_P1;HPM_P2
2023/03/22 00:00:38;;;;;;;1.20;0.80;;;12.00;99.90;;;;;;5095312;28;20483;-50
2023/03/22 00:03:06;;;;;;;1.00;0.70;;;12.00;99.90;;;;;;5095433;28;20424;-55
2023/03/22 00:05:34;;;;;;;0.90;0.60;;;12.00;99.90;;;;;;5095972;28;20523;-54
2023/03/22 00:08:04;;;;;;;1.40;0.70;;;12.00;99.90;;;;;;5095326;28;20440;-53
2023/03/22 00:10:31;;;;;;;0.90;0.60;;;12.00;99.90;;;;;;5095676;28;20518;-54
2023/03/22 00:12:59;;;;;;;1.60;0.70;;;11.90;99.90;;;;;;5096412;28;20413;-54
2023/03/22 00:15:28;;;;;;;1.00;0.70;;;11.90;99.90;;;;;;5096175;28;20845;-54
2023/03/22 00:17:55;;;;;;;1.00;0.60;;;11.90;99.90;;;;;;5096317;28;20853;-53
2023/03/22 00:20:23;;;;;;;1.27;0.80;;;11.90;99.90;;;;;;5097011;28;20430;-54
2023/03/22 00:22:51;;;;;;;1.00;0.70;;;12.00;99.90;;;;;;5096390;28;20504;-54
2023/03/22 00:25:18;;;;;;;2.40;0.80;;;12.00;99.90;;;;;;5095157;28;20465;-56
2023/03/22 00:27:45;;;;;;;1.00;0.70;;;11.90;99.90;;;;;;5095315;28;20467;-52
2023/03/22 00:30:13;;;;;;;1.20;0.63;;;12.00;1.00;;;;;;5093730;28;20434;-54
2023/03/22 00:32:41;;;;;;;1.10;0.70;;;12.00;1.00;;;;;;5094153;28;20504;-52
2023/03/22 00:35:09;;;;;;;1.00;0.60;;;11.90;1.00;;;;;;5093880;28;20847;-55
2023/03/22 00:37:37;;;;;;;1.00;0.60;;;11.80;1.00;;;;;;5094169;28;20475;-57
2023/03/22 00:40:08;;;;;;;1.70;0.70;;;11.80;1.00;;;;;;5095446;28;20472;-55
2023/03/22 00:42:35;;;;;;;1.60;0.70;;;11.80;1.00;;;;;;5095890;28;20420;-50
2023/03/22 00:45:03;;;;;;;1.30;0.68;;;11.80;1.00;;;;;;5096160;28;20422;-54
2023/03/22 00:47:30;;;;;;;1.60;0.70;;;11.80;1.00;;;;;;5095170;28;20520;-54
2023/03/22 00:49:57;;;;;;;0.90;0.70;;;11.80;1.00;;;;;;5095946;28;20501;-56
2023/03/22 00:52:24;;;;;;;1.50;0.60;;;11.80;1.00;;;;;;5095536;28;20453;-54
2023/03/22 00:54:51;;;;;;;1.57;0.80;;;11.80;1.00;;;;;;5096011;28;20424;-53
2023/03/22 00:57:19;;;;;;;1.30;0.80;;;11.80;1.00;;;;;;5094780;28;20722;-54
2023/03/22 00:59:46;;;;;;;2.50;0.70;;;11.80;1.00;;;;;;5094447;28;20509;-50
2023/03/22 01:02:13;;;;;;;0.93;0.70;;;11.70;1.00;;;;;;5092700;28;20504;-54
2023/03/22 01:04:45;;;;;;;2.53;0.77;;;11.70;1.00;;;;;;5095118;28;20450;-53
2023/03/22 01:07:16;;;;;;;1.10;0.70;;;11.70;1.00;;;;;;5095217;28;20422;-53
2023/03/22 01:09:43;;;;;;;1.60;0.80;;;11.60;1.00;;;;;;5094708;28;20527;-54
2023/03/22 01:12:10;;;;;;;1.00;0.70;;;11.60;1.00;;;;;;5095951;28;20448;-53
2023/03/22 01:14:39;;;;;;;1.00;0.70;;;11.60;1.00;;;;;;5095657;28;20421;-54
2023/03/22 01:17:06;;;;;;;0.90;0.70;;;11.50;1.00;;;;;;5095129;28;20468;-56
2023/03/22 01:19:33;;;;;;;1.43;0.70;;;11.50;1.00;;;;;;5094289;28;20501;-54
2023/03/22 01:22:00;;;;;;;1.20;0.70;;;11.40;1.00;;;;;;5094561;28;20531;-54
2023/03/22 01:24:27;;;;;;;1.00;0.70;;;11.30;1.00;;;;;;5095502;28;20513;-52
2023/03/22 01:26:54;;;;;;;1.00;0.70;;;11.30;1.00;;;;;;5095252;28;20468;-55
2023/03/22 01:29:21;;;;;;;0.90;0.70;;;11.20;1.00;;;;;;5093864;28;20458;-55
2023/03/22 01:31:50;;;;;;;1.40;0.80;;;11.20;1.00;;;;;;5095357;28;20512;-53
2023/03/22 01:34:17;;;;;;;1.20;0.60;;;11.10;1.00;;;;;;5094541;28;20417;-57
2023/03/22 01:36:44;;;;;;;0.90;0.60;;;11.10;1.00;;;;;;5093739;28;20461;-54
2023/03/22 01:39:14;;;;;;;0.90;0.70;;;11.10;1.00;;;;;;5094869;28;20457;-51
2023/03/22 01:41:41;;;;;;;1.47;0.70;;;11.00;1.00;;;;;;5094696;28;20429;-53
2023/03/22 01:44:13;;;;;;;1.80;0.70;;;11.00;1.00;;;;;;5093971;28;20421;-54
2023/03/22 01:46:41;;;;;;;1.60;0.65;;;10.90;1.00;;;;;;5094459;28;20785;-54
2023/03/22 01:49:13;;;;;;;1.00;0.60;;;10.90;1.00;;;;;;5093937;28;20508;-54
2023/03/22 01:51:42;;;;;;;1.30;0.60;;;10.80;1.00;;;;;;5093543;28;20924;-52
2023/03/22 01:54:13;;;;;;;1.20;0.60;;;10.80;1.00;;;;;;5093341;28;20517;-50
2023/03/22 01:56:41;;;;;;;0.80;0.70;;;10.80;1.00;;;;;;5092715;28;20508;-51
2023/03/22 01:59:12;;;;;;;0.90;0.70;;;10.80;1.00;;;;;;5092868;28;20410;-54
2023/03/22 02:01:40;;;;;;;0.90;0.60;;;10.80;1.00;;;;;;5093355;28;20512;-54
2023/03/22 02:04:11;;;;;;;1.00;0.60;;;10.80;1.00;;;;;;5093361;28;20418;-54
2023/03/22 02:06:39;;;;;;;0.90;0.60;;;10.80;1.00;;;;;;5095319;28;20430;-55
2023/03/22 02:09:08;;;;;;;0.90;0.60;;;10.80;1.00;;;;;;5094753;28;20512;-50
2023/03/22 02:11:40;;;;;;;0.80;0.60;;;10.80;1.00;;;;;;5094387;28;20520;-53
2023/03/22 02:14:40;;;;;;;0.90;0.60;;;10.80;1.00;;;;;;5094549;28;20453;-55
2023/03/22 02:17:24;;;;;;;1.65;0.60;;;10.80;1.00;;;;;;5089903;28;20425;-52
2023/03/22 02:20:36;;;;;;;0.80;0.60;;;10.80;1.00;;;;;;5094451;28;20499;-53
2023/03/22 02:23:26;;;;;;;1.00;0.65;;;10.80;1.00;;;;;;5095025;28;20433;-53
2023/03/22 02:26:19;;;;;;;0.90;0.60;;;10.80;1.00;;;;;;5095209;28;20426;-56
2023/03/22 02:28:52;;;;;;;0.90;0.60;;;10.80;1.00;;;;;;5094431;28;20422;-50
2023/03/22 02:31:52;;;;;;;1.10;0.60;;;10.80;1.00;;;;;;5094590;28;20429;-51
2023/03/22 02:34:45;;;;;;;1.70;0.60;;;10.70;1.00;;;;;;5096522;28;20501;-56
2023/03/22 02:37:42;;;;;;;0.70;0.50;;;10.70;1.00;;;;;;5096955;28;20512;-51
2023/03/22 02:40:14;;;;;;;1.40;0.80;;;10.70;1.00;;;;;;5080218;28;20551;-54
2023/03/22 02:42:52;;;;;;;0.90;0.60;;;10.60;1.00;;;;;;5097118;28;20833;-53
2023/03/22 02:45:28;;;;;;;2.22;0.70;;;10.60;1.00;;;;;;5097740;28;20520;-50
2023/03/22 02:48:01;;;;;;;0.93;0.60;;;10.50;1.00;;;;;;5096190;28;20938;-57
2023/03/22 02:50:35;;;;;;;1.20;0.60;;;10.40;1.00;;;;;;5095600;28;20955;-54
2023/03/22 02:53:06;;;;;;;1.70;0.60;;;10.50;1.00;;;;;;5096375;28;20520;-52
2023/03/22 02:55:39;;;;;;;1.30;0.60;;;10.40;1.00;;;;;;5096655;28;20457;-53
2023/03/22 02:58:11;;;;;;;0.95;0.60;;;10.40;1.00;;;;;;5096131;28;20733;-54
2023/03/22 03:00:39;;;;;;;1.10;0.60;;;10.40;1.00;;;;;;5096481;28;20520;-55
2023/03/22 03:03:10;;;;;;;0.90;0.60;;;10.40;1.00;;;;;;5097971;28;20483;-53
2023/03/22 03:05:39;;;;;;;0.80;0.60;;;10.30;1.00;;;;;;5097859;28;20448;-53
2023/03/22 03:08:08;;;;;;;1.00;0.60;;;10.30;1.00;;;;;;5096993;28;20422;-53
2023/03/22 03:10:37;;;;;;;1.20;0.70;;;10.20;1.00;;;;;;5098032;28;20525;-55
2023/03/22 03:13:04;;;;;;;1.50;0.70;;;10.20;1.00;;;;;;5097798;28;20422;-55
2023/03/22 03:15:32;;;;;;;1.13;0.70;;;10.20;1.00;;;;;;5097228;28;20429;-53
2023/03/22 03:18:19;;;;;;;1.00;0.70;;;10.20;1.00;;;;;;5097330;28;20496;-51
2023/03/22 03:20:56;;;;;;;1.35;0.80;;;10.20;1.00;;;;;;5097062;28;20473;-52
2023/03/22 03:23:33;;;;;;;0.80;0.60;;;10.20;1.00;;;;;;5098090;28;20805;-52
2023/03/22 03:26:06;;;;;;;1.30;0.60;;;10.20;1.00;;;;;;5095417;28;20893;-50
2023/03/22 03:28:38;;;;;;;0.98;0.60;;;10.20;1.00;;;;;;5094924;28;20475;-55
2023/03/22 03:31:18;;;;;;;0.90;0.63;;;10.20;1.00;;;;;;5096125;28;20528;-54
2023/03/22 03:33:52;;;;;;;2.00;0.60;;;10.30;1.00;;;;;;5095979;28;20829;-53
2023/03/22 03:36:21;;;;;;;0.80;0.50;;;10.30;1.00;;;;;;5094880;28;20803;-51
2023/03/22 03:38:52;;;;;;;1.00;0.60;;;10.30;1.00;;;;;;5096253;28;20522;-55
2023/03/22 03:41:24;;;;;;;1.70;0.50;;;10.20;1.00;;;;;;5095043;28;20765;-51
2023/03/22 03:43:52;;;;;;;1.00;0.60;;;10.20;1.00;;;;;;5094833;28;20496;-55
2023/03/22 03:46:20;;;;;;;1.13;0.60;;;10.20;1.00;;;;;;5094210;28;20540;-54
2023/03/22 03:48:50;;;;;;;0.80;0.60;;;10.20;1.00;;;;;;5095950;28;20513;-56
2023/03/22 03:51:17;;;;;;;1.60;0.60;;;10.10;1.00;;;;;;5094977;28;20522;-54
2023/03/22 03:53:44;;;;;;;0.80;0.70;;;10.20;1.00;;;;;;5096235;28;20500;-53
2023/03/22 03:56:11;;;;;;;1.00;0.50;;;10.20;1.00;;;;;;5097154;28;20512;-55
2023/03/22 03:58:39;;;;;;;1.08;0.60;;;10.10;1.00;;;;;;5096702;28;20920;-51
2023/03/22 04:01:07;;;;;;;1.83;1.10;;;10.10;1.00;;;;;;5095078;28;20444;-53
2023/03/22 04:03:34;;;;;;;1.30;0.70;;;10.10;1.00;;;;;;5095589;28;20512;-56
2023/03/22 04:06:01;;;;;;;0.90;0.60;;;10.10;1.00;;;;;;5094612;28;20428;-51
2023/03/22 04:08:27;;;;;;;1.00;0.60;;;10.10;1.00;;;;;;5095452;28;20448;-53
2023/03/22 04:10:54;;;;;;;0.80;0.60;;;10.00;1.00;;;;;;5095682;28;20517;-54
2023/03/22 04:13:23;;;;;;;0.90;0.60;;;10.00;1.00;;;;;;5094994;28;20831;-52
2023/03/22 04:15:56;;;;;;;1.58;0.60;;;10.10;1.00;;;;;;5096705;28;20436;-53
2023/03/22 04:18:23;;;;;;;0.70;0.50;;;10.00;1.00;;;;;;5097415;28;20428;-55
2023/03/22 04:20:52;;;;;;;1.23;0.60;;;10.10;1.00;;;;;;5096002;28;20464;-52
2023/03/22 04:23:21;;;;;;;0.80;0.60;;;10.10;1.00;;;;;;5096745;28;20421;-54
2023/03/22 04:25:49;;;;;;;2.50;1.25;;;10.10;1.00;;;;;;5096146;28;20465;-56
2023/03/22 04:28:18;;;;;;;1.30;0.85;;;10.10;1.00;;;;;;5096330;28;20453;-55
2023/03/22 04:30:49;;;;;;;1.30;0.80;;;10.00;1.00;;;;;;5096404;28;20430;-56
2023/03/22 04:33:18;;;;;;;1.70;0.60;;;9.90;1.00;;;;;;5096277;28;20452;-51
2023/03/22 04:35:45;;;;;;;1.00;0.60;;;9.90;1.00;;;;;;5095765;28;20426;-54
2023/03/22 04:38:12;;;;;;;0.98;0.60;;;9.90;1.00;;;;;;5096326;28;20414;-54
2023/03/22 04:40:45;;;;;;;1.10;0.70;;;9.90;1.00;;;;;;5096656;28;20428;-55
2023/03/22 04:43:14;;;;;;;0.90;0.60;;;9.80;1.00;;;;;;5095731;28;20513;-52
2023/03/22 04:45:42;;;;;;;1.10;0.60;;;9.80;1.00;;;;;;5095624;28;20560;-55
2023/03/22 04:48:10;;;;;;;0.90;0.60;;;9.80;1.00;;;;;;5096148;28;20422;-55
2023/03/22 04:50:38;;;;;;;1.30;0.60;;;9.70;1.00;;;;;;5096143;28;20434;-53
2023/03/22 04:53:05;;;;;;;0.82;0.60;;;9.80;1.00;;;;;;5096157;28;20410;-55
2023/03/22 04:55:33;;;;;;;2.00;0.80;;;9.80;1.00;;;;;;5094451;28;20426;-55
2023/03/22 04:58:00;;;;;;;1.10;0.80;;;9.80;1.00;;;;;;5094592;28;20431;-53
2023/03/22 05:00:29;;;;;;;0.95;0.70;;;9.70;1.00;;;;;;5096124;28;20445;-54
2023/03/22 05:02:56;;;;;;;0.90;0.60;;;9.70;1.00;;;;;;5095697;28;20503;-51
2023/03/22 05:05:23;;;;;;;1.90;0.60;;;9.70;1.00;;;;;;5095630;28;20525;-51
2023/03/22 05:07:51;;;;;;;1.42;0.90;;;9.80;1.00;;;;;;5094893;28;20505;-50
2023/03/22 05:10:18;;;;;;;1.30;0.70;;;9.70;1.00;;;;;;5095414;28;20517;-53
2023/03/22 05:12:45;;;;;;;1.20;0.70;;;9.70;1.00;;;;;;5095794;28;20421;-51
2023/03/22 05:15:12;;;;;;;1.50;0.70;;;9.70;1.00;;;;;;5095196;28;20463;-50
2023/03/22 05:17:39;;;;;;;0.80;0.60;;;9.70;1.00;;;;;;5095816;28;20460;-51
2023/03/22 05:20:08;;;;;;;1.40;0.73;;;9.80;1.00;;;;;;5094667;28;20795;-54
2023/03/22 05:22:36;;;;;;;0.90;0.60;;;9.80;1.00;;;;;;5094055;28;20848;-53
2023/03/22 05:25:05;;;;;;;1.08;0.70;;;9.80;1.00;;;;;;5095629;28;20448;-54
2023/03/22 05:27:33;;;;;;;1.00;0.70;;;9.70;1.00;;;;;;5094770;28;20468;-55
2023/03/22 05:30:01;;;;;;;1.10;0.70;;;9.70;1.00;;;;;;5094674;28;20433;-54
2023/03/22 05:32:28;;;;;;;1.10;0.70;;;9.70;1.00;;;;;;5095206;28;20421;-55
2023/03/22 05:34:55;;;;;;;0.90;0.60;;;9.70;1.00;;;;;;5095024;28;20469;-54
2023/03/22 05:37:22;;;;;;;1.35;0.60;;;9.80;1.00;;;;;;5094082;28;20414;-51
2023/03/22 05:39:49;;;;;;;1.42;0.70;;;9.80;1.00;;;;;;5095276;28;20509;-55
2023/03/22 05:42:17;;;;;;;1.30;0.60;;;9.80;1.00;;;;;;5094371;28;20570;-54
2023/03/22 05:44:44;;;;;;;1.10;0.70;;;9.80;1.00;;;;;;5094436;28;20504;-55
2023/03/22 05:47:11;;;;;;;0.75;0.52;;;9.80;1.00;;;;;;5094569;28;20837;-52
2023/03/22 05:49:38;;;;;;;1.50;0.70;;;9.80;1.00;;;;;;5094261;28;20528;-55
2023/03/22 05:52:06;;;;;;;1.40;0.70;;;9.90;1.00;;;;;;5093324;28;20913;-53
2023/03/22 05:54:32;;;;;;;1.40;0.90;;;10.10;1.00;;;;;;5093554;28;20413;-52
2023/03/22 05:56:59;;;;;;;1.42;0.70;;;10.00;1.00;;;;;;5093373;28;20501;-50
2023/03/22 05:59:28;;;;;;;1.50;0.60;;;9.90;1.00;;;;;;5093217;28;20430;-53
2023/03/22 06:01:55;;;;;;;1.20;0.60;;;10.00;1.00;;;;;;5093881;28;20483;-52
2023/03/22 06:04:22;;;;;;;0.90;0.60;;;9.90;1.00;;;;;;5091445;28;20772;-53
2023/03/22 06:06:49;;;;;;;1.02;0.60;;;9.90;1.00;;;;;;5094884;28;20490;-54
2023/03/22 06:09:16;;;;;;;1.70;0.70;;;10.10;1.00;;;;;;5091806;28;20428;-53
2023/03/22 06:11:43;;;;;;;1.00;0.60;;;10.10;1.00;;;;;;5093320;28;20817;-51
2023/03/22 06:14:10;;;;;;;1.20;0.70;;;10.20;1.00;;;;;;5093003;28;20837;-54
2023/03/22 06:16:38;;;;;;;1.50;0.70;;;10.20;1.00;;;;;;5091727;28;20426;-50
2023/03/22 06:19:05;;;;;;;1.30;0.60;;;10.10;1.00;;;;;;5094282;28;20509;-52
2023/03/22 06:21:32;;;;;;;0.80;0.50;;;10.20;1.00;;;;;;5093674;28;20926;-55
2023/03/22 06:23:59;;;;;;;1.10;0.60;;;10.20;1.00;;;;;;5093498;28;20857;-55
2023/03/22 06:26:26;;;;;;;1.65;0.70;;;10.20;1.00;;;;;;5092995;28;20432;-54
2023/03/22 06:28:53;;;;;;;0.90;0.60;;;10.20;1.00;;;;;;5093573;28;20465;-51
2023/03/22 06:31:20;;;;;;;1.88;0.70;;;10.20;1.00;;;;;;5092795;28;20877;-54
2023/03/22 06:33:48;;;;;;;1.30;0.70;;;10.20;1.00;;;;;;5090968;28;20500;-52
2023/03/22 06:36:15;;;;;;;1.08;0.60;;;10.20;1.00;;;;;;5089528;28;20426;-55
2023/03/22 06:38:42;;;;;;;1.00;0.70;;;10.30;1.00;;;;;;5092333;28;20421;-52
2023/03/22 06:41:09;;;;;;;1.55;0.70;;;10.30;1.00;;;;;;5094469;28;20432;-54
2023/03/22 06:43:36;;;;;;;1.75;0.70;;;10.30;1.00;;;;;;5091071;28;20504;-52
2023/03/22 06:46:03;;;;;;;1.40;0.60;;;10.40;1.00;;;;;;5092015;28;20512;-54
2023/03/22 06:48:30;;;;;;;1.00;0.60;;;10.50;1.00;;;;;;5091614;28;20443;-55
2023/03/22 06:50:59;;;;;;;0.93;0.60;;;10.60;99.90;;;;;;5093517;28;20533;-53
2023/03/22 06:53:26;;;;;;;2.40;0.70;;;10.70;99.90;;;;;;5091405;28;20421;-55
2023/03/22 06:55:53;;;;;;;1.50;0.60;;;10.80;1.00;;;;;;5090461;28;20754;-55
2023/03/22 06:58:20;;;;;;;1.40;0.60;;;11.00;1.00;;;;;;5090137;28;20791;-53
2023/03/22 07:00:47;;;;;;;1.10;0.50;;;11.00;99.90;;;;;;5092863;28;20505;-52
2023/03/22 07:03:14;;;;;;;0.80;0.50;;;11.00;99.90;;;;;;5091531;28;20901;-54
2023/03/22 07:05:41;;;;;;;0.95;0.60;;;11.20;1.00;;;;;;5090106;28;20426;-52
2023/03/22 07:08:10;;;;;;;0.90;0.60;;;11.10;1.00;;;;;;5089854;28;20505;-51
2023/03/22 07:10:37;;;;;;;1.60;0.60;;;11.20;99.90;;;;;;5092366;28;20872;-53
2023/03/22 07:13:04;;;;;;;0.90;0.60;;;11.10;1.00;;;;;;5090137;28;20454;-55
2023/03/22 07:15:33;;;;;;;1.00;0.63;;;11.20;1.00;;;;;;5091602;28;20516;-53
2023/03/22 07:18:00;;;;;;;1.00;0.67;;;11.20;1.00;;;;;;5090890;28;20422;-53
2023/03/22 07:20:27;;;;;;;0.90;0.60;;;11.20;99.90;;;;;;5095502;28;20429;-54
2023/03/22 07:22:54;;;;;;;1.30;0.60;;;11.20;99.90;;;;;;5095586;28;20770;-54
2023/03/22 07:25:22;;;;;;;1.20;0.60;;;11.30;99.90;;;;;;5094384;28;20626;-51
2023/03/22 07:27:49;;;;;;;1.20;0.60;;;11.40;1.00;;;;;;5094079;28;20842;-53
2023/03/22 07:30:16;;;;;;;0.80;0.50;;;11.40;1.00;;;;;;5095613;28;20849;-55
2023/03/22 07:32:43;;;;;;;0.80;0.50;;;11.50;1.00;;;;;;5094601;28;20422;-53
2023/03/22 07:35:10;;;;;;;0.93;0.50;;;11.50;99.90;;;;;;5094793;28;20821;-55
2023/03/22 07:37:37;;;;;;;1.30;0.60;;;11.50;99.90;;;;;;5095177;28;20405;-54
2023/03/22 07:40:05;;;;;;;1.50;0.60;;;11.60;1.00;;;;;;5095268;28;20516;-56
2023/03/22 07:42:33;;;;;;;1.60;0.50;;;11.70;1.00;;;;;;5096482;28;20786;-55
2023/03/22 07:45:00;;;;;;;0.70;0.50;;;11.80;1.00;;;;;;5093198;28;20502;-56
2023/03/22 07:47:27;;;;;;;1.42;0.50;;;11.90;99.90;;;;;;5092287;28;20795;-56
2023/03/22 07:49:54;;;;;;;0.88;0.40;;;12.00;52.70;;;;;;5086276;28;20849;-54
2023/03/22 07:52:21;;;;;;;2.10;0.70;;;12.10;1.00;;;;;;5086588;28;20424;-55
2023/03/22 07:54:48;;;;;;;1.00;0.60;;;12.20;1.00;;;;;;5092445;28;20901;-56
2023/03/22 07:57:15;;;;;;;0.70;0.40;;;12.40;1.00;;;;;;5088707;28;20427;-55
2023/03/22 07:59:44;;;;;;;0.70;0.50;;;12.50;1.00;;;;;;5072463;28;20419;-58
2023/03/22 08:02:11;;;;;;;1.40;0.40;;;12.60;1.00;;;;;;5074923;28;20465;-58
2023/03/22 08:04:38;;;;;;;0.60;0.40;;;12.70;1.00;;;;;;5073244;28;20644;-59
2023/03/22 08:07:08;;;;;;;1.30;0.50;;;12.80;1.00;;;;;;5072180;28;20455;-59
2023/03/22 08:09:35;;;;;;;0.80;0.50;;;13.00;1.00;;;;;;5073066;28;20463;-56
2023/03/22 08:12:02;;;;;;;1.20;0.40;;;13.10;1.00;;;;;;5073986;28;20431;-55
2023/03/22 08:14:29;;;;;;;0.80;0.50;;;13.20;1.00;;;;;;5090505;28;20420;-60
2023/03/22 08:16:58;;;;;;;81.10;5.43;;;13.30;1.00;;;;;;5091264;28;20425;-60
2023/03/22 08:19:25;;;;;;;2.03;0.47;;;13.30;1.00;;;;;;5090083;28;20437;-60
2023/03/22 08:21:52;;;;;;;1.10;0.50;;;13.40;99.90;;;;;;5092475;28;20775;-61
2023/03/22 08:24:19;;;;;;;6.20;0.50;;;13.30;99.90;;;;;;5082482;28;20841;-60
2023/03/22 08:26:48;;;;;;;0.73;0.40;;;13.30;99.90;;;;;;5093782;28;20454;-60
2023/03/22 08:29:15;;;;;;;0.70;0.40;;;13.40;99.90;;;;;;5095744;28;20857;-60
2023/03/22 08:31:42;;;;;;;1.00;0.50;;;13.50;99.90;;;;;;5092215;28;20796;-60
2023/03/22 08:34:10;;;;;;;1.70;0.50;;;13.70;99.90;;;;;;5092801;28;20985;-60
2023/03/22 08:36:38;;;;;;;1.52;0.50;;;13.90;99.90;;;;;;5095540;28;20479;-60
2023/03/22 08:39:05;;;;;;;0.70;0.30;;;14.10;99.90;;;;;;5092984;28;20513;-62
2023/03/22 08:41:32;;;;;;;1.60;0.40;;;14.10;99.90;;;;;;5085531;28;20794;-61
2023/03/22 08:43:59;;;;;;;0.60;0.30;;;14.20;99.90;;;;;;5072270;28;20526;-62
2023/03/22 08:46:26;;;;;;;1.20;0.50;;;14.30;99.90;;;;;;5093227;28;20440;-63
2023/03/22 08:48:53;;;;;;;0.60;0.30;;;14.30;99.90;;;;;;5093693;28;20739;-62
2023/03/22 08:51:23;;;;;;;0.50;0.22;;;14.30;99.90;;;;;;5093272;28;20437;-61
2023/03/22 08:53:50;;;;;;;1.00;0.30;;;14.40;99.90;;;;;;5091007;28;20457;-60
2023/03/22 08:56:19;;;;;;;0.60;0.30;;;14.40;99.90;;;;;;5094190;28;21051;-63
2023/03/22 08:58:46;;;;;;;0.50;0.30;;;14.40;99.90;;;;;;5093176;28;20746;-60
2023/03/22 09:01:14;;;;;;;0.70;0.30;;;14.40;99.90;;;;;;5091471;28;20874;-61
2023/03/22 09:03:41;;;;;;;1.00;0.30;;;14.40;99.90;;;;;;5089908;28;20473;-61
2023/03/22 09:06:09;;;;;;;0.90;0.27;;;14.50;99.90;;;;;;5093491;28;20483;-61
2023/03/22 09:08:37;;;;;;;0.50;0.30;;;14.70;99.90;;;;;;5093859;28;20738;-61
2023/03/22 09:11:07;;;;;;;0.50;0.30;;;14.80;99.90;;;;;;5091977;28;20429;-61
2023/03/22 09:13:34;;;;;;;0.40;0.30;;;14.80;99.90;;;;;;5090786;28;20518;-63
2023/03/22 09:16:02;;;;;;;0.60;0.30;;;14.80;99.90;;;;;;5091574;28;20799;-61
2023/03/22 09:18:29;;;;;;;0.60;0.30;;;14.80;99.90;;;;;;5093816;28;20422;-62
2023/03/22 09:20:56;;;;;;;0.50;0.30;;;14.90;99.90;;;;;;5085630;28;20428;-62
2023/03/22 09:23:23;;;;;;;0.60;0.30;;;14.90;99.90;;;;;;5080678;28;20770;-61
2023/03/22 09:25:52;;;;;;;0.80;0.30;;;15.00;99.90;;;;;;5080697;28;20454;-61
2023/03/22 09:28:19;;;;;;;0.70;0.30;;;15.10;99.90;;;;;;5092544;28;20673;-60
2023/03/22 09:30:46;;;;;;;0.60;0.30;;;15.30;99.90;;;;;;5091860;28;20440;-60
2023/03/22 09:33:13;;;;;;;0.80;0.40;;;15.20;99.90;;;;;;5092219;28;20484;-60
2023/03/22 09:35:41;;;;;;;0.70;0.30;;;15.40;90.90;;;;;;5090456;28;20524;-59
2023/03/22 09:38:09;;;;;;;1.05;0.30;;;15.40;88.20;;;;;;5091400;28;20443;-61
2023/03/22 09:40:39;;;;;;;0.65;0.30;;;15.50;71.10;;;;;;5093252;28;20464;-61
2023/03/22 09:43:12;;;;;;;1.80;0.40;;;15.60;68.70;;;;;;5090824;28;20479;-60
2023/03/22 09:45:42;;;;;;;0.60;0.30;;;15.80;32.60;;;;;;5092057;28;20516;-61
2023/03/22 09:48:14;;;;;;;0.60;0.30;;;15.80;1.00;;;;;;5093015;28;20529;-61
2023/03/22 09:50:46;;;;;;;0.60;0.30;;;15.80;1.00;;;;;;5093091;28;20537;-61
2023/03/22 09:53:15;;;;;;;0.60;0.40;;;15.80;1.00;;;;;;5093160;28;20524;-59
2023/03/22 09:55:47;;;;;;;0.97;0.30;;;15.90;1.00;;;;;;5092752;28;20528;-62
2023/03/22 09:58:24;;;;;;;0.80;0.30;;;16.20;1.00;;;;;;5093522;28;20513;-61
2023/03/22 10:00:57;;;;;;;0.50;0.30;;;16.30;1.00;;;;;;5093342;28;20426;-60
2023/03/22 10:03:49;;;;;;;0.50;0.30;;;16.40;1.00;;;;;;5090556;28;20673;-61
2023/03/22 10:06:19;;;;;;;0.50;0.20;;;16.40;1.00;;;;;;5079838;28;20510;-61
2023/03/22 10:08:58;;;;;;;0.60;0.30;;;16.50;1.00;;;;;;5078374;28;20458;-61
2023/03/22 10:11:32;;;;;;;0.60;0.30;;;16.60;1.00;;;;;;5071801;28;20459;-62
2023/03/22 10:14:08;;;;;;;1.00;0.30;;;16.60;1.00;;;;;;5072158;28;20602;-63
2023/03/22 10:16:36;;;;;;;1.70;0.40;;;16.60;1.00;;;;;;5072133;28;20534;-62
2023/03/22 10:19:07;;;;;;;0.60;0.30;;;16.50;1.00;;;;;;5072854;28;20476;-62
2023/03/22 10:21:35;;;;;;;2.15;0.40;;;16.80;1.00;;;;;;5073322;28;20416;-62
2023/03/22 10:24:08;;;;;;;0.50;0.30;;;17.10;1.00;;;;;;5071397;28;20462;-62
2023/03/22 10:26:39;;;;;;;0.50;0.30;;;17.30;1.00;;;;;;5071548;28;20923;-62
2023/03/22 10:29:15;;;;;;;0.60;0.30;;;17.20;1.00;;;;;;5071085;28;21022;-63
2023/03/22 10:31:44;;;;;;;0.50;0.30;;;17.30;1.00;;;;;;5075767;28;20582;-62
2023/03/22 10:34:19;;;;;;;0.80;0.30;;;17.10;1.00;;;;;;5088293;28;20501;-62
2023/03/22 10:36:48;;;;;;;1.20;0.38;;;17.10;1.00;;;;;;5069574;28;20490;-62
2023/03/22 10:39:27;;;;;;;0.80;0.30;;;17.30;1.00;;;;;;5091061;28;20446;-63
2023/03/22 10:41:54;;;;;;;0.50;0.30;;;17.60;1.00;;;;;;5072418;28;20477;-62
2023/03/22 10:44:25;;;;;;;0.90;0.30;;;17.70;1.00;;;;;;5088829;28;20417;-63
2023/03/22 10:46:54;;;;;;;0.60;0.30;;;17.80;1.00;;;;;;5074210;28;21029;-63
2023/03/22 10:49:26;;;;;;;0.60;0.30;;;18.20;1.00;;;;;;5074238;28;20851;-62
2023/03/22 10:52:02;;;;;;;0.50;0.30;;;18.30;1.00;;;;;;5082402;28;20442;-60
2023/03/22 10:54:30;;;;;;;0.70;0.30;;;18.30;1.00;;;;;;5074264;28;20921;-60
2023/03/22 10:56:57;;;;;;;0.70;0.30;;;18.50;1.00;;;;;;5079406;28;20687;-60
2023/03/22 10:59:50;;;;;;;0.50;0.30;;;18.70;1.00;;;;;;5100018;28;20524;-61
2023/03/22 11:02:23;;;;;;;0.40;0.20;;;18.80;1.00;;;;;;5077035;28;20420;-61
2023/03/22 11:04:52;;;;;;;0.50;0.30;;;18.80;1.00;;;;;;5094333;28;20447;-61
2023/03/22 11:07:32;;;;;;;0.50;0.22;;;18.90;1.00;;;;;;5094307;28;20644;-61
2023/03/22 11:10:26;;;;;;;0.40;0.30;;;19.00;1.00;;;;;;5084051;28;20766;-61
2023/03/22 11:12:56;;;;;;;0.60;0.20;;;19.20;1.00;;;;;;5085483;28;20421;-61
2023/03/22 11:15:30;;;;;;;0.50;0.20;;;18.80;1.00;;;;;;5088011;28;20461;-61
2023/03/22 11:18:04;;;;;;;1.20;0.30;;;18.50;1.00;;;;;;5085391;28;20466;-61
2023/03/22 11:20:33;;;;;;;0.77;0.28;;;18.70;1.00;;;;;;5072088;28;20508;-61
2023/03/22 11:23:03;;;;;;;0.50;0.30;;;19.00;1.00;;;;;;5090282;28;20412;-61
2023/03/22 11:25:32;;;;;;;0.70;0.30;;;19.20;1.00;;;;;;5083475;28;20464;-62
2023/03/22 11:28:15;;;;;;;0.60;0.20;;;19.20;1.00;;;;;;5080907;28;20473;-62
2023/03/22 11:30:58;;;;;;;1.40;0.30;;;19.20;1.00;;;;;;5075031;28;20435;-61
2023/03/22 11:33:26;;;;;;;0.60;0.40;;;19.00;1.00;;;;;;5086757;28;20504;-63
2023/03/22 11:35:55;;;;;;;1.70;0.60;;;19.20;1.00;;;;;;5091957;28;21032;-62
2023/03/22 11:38:35;;;;;;;0.40;0.20;;;19.30;1.00;;;;;;5081112;28;20445;-62
2023/03/22 11:41:06;;;;;;;0.40;0.20;;;19.40;1.00;;;;;;5091522;28;20504;-61
2023/03/22 11:43:36;;;;;;;0.40;0.20;;;19.50;1.00;;;;;;5094845;28;21126;-61
2023/03/22 11:46:06;;;;;;;0.50;0.30;;;19.70;1.00;;;;;;5093508;28;20461;-61
2023/03/22 11:48:36;;;;;;;0.40;0.20;;;20.00;1.00;;;;;;5094908;28;20572;-62
2023/03/22 11:51:10;;;;;;;0.40;0.20;;;20.40;1.00;;;;;;5094912;28;20520;-61
2023/03/22 11:53:39;;;;;;;0.40;0.20;;;20.50;1.00;;;;;;5097449;28;20509;-62
2023/03/22 11:56:09;;;;;;;0.50;0.20;;;20.70;1.00;;;;;;5097257;28;20453;-62
2023/03/22 11:58:49;;;;;;;0.80;0.20;;;20.70;1.00;;;;;;5096110;28;20774;-62
2023/03/22 12:01:26;;;;;;;0.60;0.30;;;20.70;1.00;;;;;;5095960;28;20870;-62
2023/03/22 12:03:56;;;;;;;0.60;0.30;;;20.70;1.00;;;;;;5086488;28;20487;-63
2023/03/22 12:06:28;;;;;;;0.90;0.30;;;20.40;1.00;;;;;;5075229;28;20923;-64
2023/03/22 12:08:58;;;;;;;0.35;0.20;;;20.20;1.00;;;;;;5075014;28;20422;-61
2023/03/22 12:11:31;;;;;;;0.47;0.20;;;20.00;1.00;;;;;;5085301;28;20429;-60
2023/03/22 12:14:01;;;;;;;0.40;0.20;;;19.90;1.00;;;;;;5080249;28;20421;-60
2023/03/22 12:16:36;;;;;;;0.50;0.28;;;20.10;1.00;;;;;;5088155;28;20792;-61
2023/03/22 12:19:09;;;;;;;0.40;0.20;;;20.10;1.00;;;;;;5084470;28;20423;-61
2023/03/22 12:21:36;;;;;;;0.43;0.20;;;20.00;1.00;;;;;;5085384;28;20867;-61
2023/03/22 12:24:10;;;;;;;1.00;0.40;;;20.00;1.00;;;;;;5083605;28;20498;-61
2023/03/22 12:26:38;;;;;;;0.40;0.20;;;19.90;1.00;;;;;;5080800;28;20517;-62
2023/03/22 12:29:08;;;;;;;0.40;0.20;;;19.90;1.00;;;;;;5074684;28;20515;-61
2023/03/22 12:31:41;;;;;;;0.43;0.20;;;20.00;1.00;;;;;;5086643;28;20770;-61
2023/03/22 12:34:15;;;;;;;0.50;0.20;;;19.90;1.00;;;;;;5082028;28;20850;-62
2023/03/22 12:36:46;;;;;;;0.40;0.20;;;20.00;1.00;;;;;;5093065;28;20536;-61
2023/03/22 12:39:21;;;;;;;0.70;0.20;;;20.30;1.00;;;;;;5083179;28;20499;-62
2023/03/22 12:41:53;;;;;;;0.40;0.20;;;20.60;1.00;;;;;;5086448;28;20598;-62
2023/03/22 12:44:26;;;;;;;1.10;0.30;;;20.80;1.00;;;;;;5085732;28;20519;-61
2023/03/22 12:46:58;;;;;;;0.60;0.30;;;21.10;1.00;;;;;;5095926;28;20746;-61
2023/03/22 12:49:34;;;;;;;0.67;0.20;;;20.90;1.00;;;;;;5081140;28;20455;-62
2023/03/22 12:52:11;;;;;;;0.50;0.20;;;20.80;1.00;;;;;;5073887;28;20841;-62
2023/03/22 12:54:40;;;;;;;0.50;0.20;;;20.60;1.00;;;;;;5077852;28;20501;-61
2023/03/22 12:57:08;;;;;;;0.40;0.20;;;20.50;1.00;;;;;;5084523;28;20473;-61
2023/03/22 12:59:36;;;;;;;0.80;0.20;;;20.40;1.00;;;;;;5085214;28;20509;-60
2023/03/22 13:02:16;;;;;;;0.50;0.20;;;20.40;1.00;;;;;;5090199;28;20417;-62
2023/03/22 13:04:50;;;;;;;0.50;0.20;;;20.30;1.00;;;;;;5078089;28;20652;-63
2023/03/22 13:07:33;;;;;;;0.50;0.20;;;20.30;1.00;;;;;;5093605;28;20410;-61
2023/03/22 13:10:00;;;;;;;0.40;0.20;;;20.80;1.00;;;;;;5082510;28;20433;-62